Hauptseite
METAR-TAF:

METAR-TAF

Flughäfen :

Ankara Esenboğa, Türkei

Flughafen Ankara-Esenboğa

Breite: 40-07N, Länge: 032-59E, Höhe: 953 m

Beobachtung

Neuester Wetterbericht von vor 25 Minuten, um 11:50 UTC
Wind 9 kt aus West/Südwest
Temperatur 24°C
Luftfeuchtigkeit 14%
Luftdruck 1017 hPa
Sichtweite 10 km oder mehr
keine Wolken unter 1500 m und keine Kumulonimbus oder Gewitterwolken

METAR: LTAC 281150Z 25009KT CAVOK 24/M05 Q1017 NOSIG RMK RWY21L VRB05KT RWY03L 24007KT 210V300 RWY21R VRB03KT

Zeit: 15:15 (12:15 UTC)

Prognose

Neuester Wetterbericht von vor 1 Stunde und 35 Minuten, um 10:40 UTC
Gültige Prognose vom 28 um 12 UTC bis 29 um 12 UTC
Wind 2 kt aus unterschiedlichen Richtungen
Sichtweite 10 km oder mehr
keine Wolken unter 1500 m und keine Kumulonimbus oder Gewitterwolken

TAF: LTAC 281040Z 2812/2912 VRB02KT CAVOK

Wetterbeobachtungen und Prognosen von mehr als 4000 Flughäfen (METAR und TAF Bericht).

Die verfügbaren Stationen werden durch gelbe und rote Markierungen auf der Karte dargestellt.

Führen Sie die Maus auf sie, um den Namen der Station zu sehen.

Darauf klicken, um die Beobachtung von Wetterbeobachtungen und Prognosen zu sehen.

Um die Karte zu ändern : klicken Sie auf den grünen Tasten mit einem schwarzen Kreuz Zum Vergrößern, auf den grünen Button mit einem Gedankenstrich zu verkleinern, oder auf die grünen Pfeile für benachbarte Karten.


METAR-TAF: